createdAt,value
2023-01-13T00:00:32.249Z,0.40
2023-01-13T00:02:58.779Z,0.40
2023-01-13T00:05:25.284Z,0.30
2023-01-13T00:07:51.813Z,0.40
2023-01-13T00:10:18.464Z,0.37
2023-01-13T00:12:46.273Z,0.40
2023-01-13T00:15:12.912Z,0.40
2023-01-13T00:17:39.415Z,0.40
2023-01-13T00:20:07.356Z,0.30
2023-01-13T00:22:34.033Z,0.50
2023-01-13T00:25:00.536Z,0.47
2023-01-13T00:27:27.030Z,0.40
2023-01-13T00:29:54.965Z,0.50
2023-01-13T00:32:21.426Z,0.47
2023-01-13T00:34:48.503Z,0.50
2023-01-13T00:37:14.998Z,0.40
2023-01-13T00:39:41.938Z,0.60
2023-01-13T00:42:08.767Z,0.50
2023-01-13T00:44:35.219Z,0.47
2023-01-13T00:47:03.138Z,0.50
2023-01-13T00:49:29.739Z,0.45
2023-01-13T00:51:56.500Z,0.50
2023-01-13T00:54:23.156Z,0.40
2023-01-13T00:56:49.633Z,0.50
2023-01-13T00:59:16.157Z,0.70
2023-01-13T01:01:42.917Z,0.60
2023-01-13T01:04:11.105Z,0.50
2023-01-13T01:06:38.007Z,0.40
2023-01-13T01:09:05.409Z,0.40
2023-01-13T01:11:33.177Z,0.50
2023-01-13T01:14:01.846Z,0.60
2023-01-13T01:16:30.233Z,0.57
2023-01-13T01:18:57.900Z,0.50
2023-01-13T01:21:28.158Z,0.80
2023-01-13T01:23:55.237Z,0.73
2023-01-13T01:26:23.660Z,0.70
2023-01-13T01:28:50.621Z,0.60
2023-01-13T01:31:19.517Z,0.50
2023-01-13T01:33:46.193Z,0.50
2023-01-13T01:36:13.946Z,0.40
2023-01-13T01:38:42.071Z,0.50
2023-01-13T01:41:12.687Z,0.60
2023-01-13T01:43:49.475Z,0.60
2023-01-13T01:46:15.956Z,0.73
2023-01-13T01:48:42.882Z,0.50
2023-01-13T01:51:13.242Z,0.60
2023-01-13T01:53:40.439Z,0.77
2023-01-13T01:56:10.491Z,0.70
2023-01-13T01:58:42.761Z,0.65
2023-01-13T02:01:10.103Z,0.80
2023-01-13T02:03:38.837Z,0.50
2023-01-13T02:06:06.527Z,0.55
2023-01-13T02:08:33.257Z,0.55
2023-01-13T02:10:59.765Z,0.60
2023-01-13T02:13:27.705Z,0.80
2023-01-13T02:15:59.829Z,0.63
2023-01-13T02:18:36.604Z,0.63
2023-01-13T02:21:48.480Z,0.50
2023-01-13T02:24:35.339Z,0.60
2023-01-13T02:27:34.213Z,0.50
2023-01-13T02:30:10.213Z,0.57
2023-01-13T02:32:46.581Z,0.60
2023-01-13T02:35:18.759Z,0.50
2023-01-13T02:37:45.984Z,0.70
2023-01-13T02:40:19.131Z,0.60
2023-01-13T02:42:49.468Z,0.50
2023-01-13T02:45:23.818Z,0.50
2023-01-13T02:47:51.854Z,0.60
2023-01-13T02:50:23.012Z,0.80
2023-01-13T02:52:52.800Z,0.60
2023-01-13T02:55:24.472Z,0.40
2023-01-13T02:57:55.428Z,0.60
2023-01-13T03:00:23.615Z,0.60
2023-01-13T03:02:50.219Z,0.80
2023-01-13T03:05:17.054Z,0.70
2023-01-13T03:07:57.176Z,0.70
2023-01-13T03:10:50.269Z,0.90
2023-01-13T03:13:39.200Z,0.70
2023-01-13T03:16:16.609Z,0.85
2023-01-13T03:18:51.804Z,0.93
2023-01-13T03:21:24.610Z,0.50
2023-01-13T03:23:57.449Z,0.50
2023-01-13T03:26:30.869Z,0.50
2023-01-13T03:29:06.962Z,0.70
2023-01-13T03:31:41.265Z,0.60
2023-01-13T03:34:12.976Z,0.63
2023-01-13T03:36:43.762Z,0.82
2023-01-13T03:39:15.346Z,0.65
2023-01-13T03:41:45.861Z,0.68
2023-01-13T03:44:17.100Z,0.70
2023-01-13T03:46:53.112Z,0.52
2023-01-13T03:49:24.001Z,0.68
2023-01-13T03:51:55.335Z,0.80
2023-01-13T03:54:25.621Z,0.85
2023-01-13T03:56:56.689Z,0.80
2023-01-13T03:59:27.783Z,0.80
2023-01-13T04:02:02.687Z,0.40
2023-01-13T04:04:34.343Z,0.80
2023-01-13T04:07:09.965Z,0.90
2023-01-13T04:09:42.754Z,0.60
2023-01-13T04:12:15.639Z,1.10
2023-01-13T04:14:43.541Z,0.88
2023-01-13T04:17:11.667Z,1.63
2023-01-13T04:19:38.153Z,1.20
2023-01-13T04:22:04.644Z,0.67
2023-01-13T04:24:31.139Z,0.75
2023-01-13T04:26:57.757Z,0.98
2023-01-13T04:29:24.263Z,0.70
2023-01-13T04:31:50.743Z,0.80
2023-01-13T04:34:18.612Z,0.90
2023-01-13T04:36:45.881Z,0.70
2023-01-13T04:39:12.608Z,0.60
2023-01-13T04:41:39.213Z,0.93
2023-01-13T04:44:05.645Z,0.60
2023-01-13T04:46:32.357Z,0.73
2023-01-13T04:48:58.899Z,0.88
2023-01-13T04:51:26.824Z,1.02
2023-01-13T04:53:53.308Z,1.10
2023-01-13T04:56:19.785Z,0.90
2023-01-13T04:58:46.291Z,0.70
2023-01-13T05:01:12.803Z,1.25
2023-01-13T05:03:39.405Z,0.90
2023-01-13T05:06:06.309Z,1.08
2023-01-13T05:08:34.274Z,1.10
2023-01-13T05:11:00.993Z,0.80
2023-01-13T05:13:27.460Z,1.27
2023-01-13T05:15:53.982Z,1.30
2023-01-13T05:18:20.795Z,1.30
2023-01-13T05:20:47.293Z,1.13
2023-01-13T05:23:13.856Z,1.00
2023-01-13T05:25:44.261Z,1.15
2023-01-13T05:28:11.354Z,0.90
2023-01-13T05:30:39.661Z,0.98
2023-01-13T05:33:06.526Z,0.80
2023-01-13T05:35:33.215Z,1.30
2023-01-13T05:37:59.662Z,1.27
2023-01-13T05:40:26.315Z,1.42
2023-01-13T05:43:02.718Z,1.35
2023-01-13T05:45:35.401Z,1.42
2023-01-13T05:48:01.866Z,0.97
2023-01-13T05:50:28.602Z,1.10
2023-01-13T05:52:55.066Z,1.40
2023-01-13T05:55:21.607Z,1.45
2023-01-13T05:57:48.201Z,1.20
2023-01-13T06:00:17.683Z,1.00
2023-01-13T06:02:44.204Z,1.20
2023-01-13T06:05:11.096Z,0.80
2023-01-13T06:07:37.630Z,1.10
2023-01-13T06:10:05.043Z,1.13
2023-01-13T06:12:31.533Z,1.40
2023-01-13T06:14:58.480Z,1.65
2023-01-13T06:17:26.387Z,1.70
2023-01-13T06:19:53.123Z,1.52
2023-01-13T06:22:31.655Z,2.00
2023-01-13T06:24:59.150Z,1.23
2023-01-13T06:27:26.167Z,2.03
2023-01-13T06:29:52.722Z,1.40
2023-01-13T06:32:31.685Z,2.05
2023-01-13T06:35:01.419Z,2.05
2023-01-13T06:37:29.634Z,1.47
2023-01-13T06:40:00.193Z,1.55
2023-01-13T06:42:29.538Z,1.13
2023-01-13T06:44:56.104Z,1.50
2023-01-13T06:47:22.626Z,0.90
2023-01-13T06:49:50.547Z,1.30
2023-01-13T06:52:16.965Z,1.60
2023-01-13T06:54:44.030Z,1.00
2023-01-13T06:57:10.574Z,1.25
2023-01-13T06:59:37.160Z,0.90
2023-01-13T07:02:04.103Z,1.00
2023-01-13T07:04:30.635Z,1.85
2023-01-13T07:06:58.564Z,1.17
2023-01-13T07:09:25.052Z,1.02
2023-01-13T07:11:51.599Z,1.10
2023-01-13T07:14:18.239Z,0.93
2023-01-13T07:16:44.825Z,1.30
2023-01-13T07:19:11.574Z,1.30
2023-01-13T07:21:38.094Z,1.40
2023-01-13T07:24:06.555Z,1.15
2023-01-13T07:26:33.254Z,1.10
2023-01-13T07:28:59.924Z,0.80
2023-01-13T07:31:26.549Z,1.15
2023-01-13T07:33:53.055Z,0.82
2023-01-13T07:36:19.774Z,1.15
2023-01-13T07:38:46.421Z,1.00
2023-01-13T07:41:15.044Z,1.05
2023-01-13T07:43:41.592Z,1.60
2023-01-13T07:46:08.151Z,1.27
2023-01-13T07:48:35.092Z,1.10
2023-01-13T07:51:02.368Z,1.00
2023-01-13T07:53:28.932Z,1.45
2023-01-13T07:55:56.058Z,1.10
2023-01-13T07:58:26.952Z,1.27
2023-01-13T08:00:54.584Z,1.05
2023-01-13T08:03:21.690Z,0.80
2023-01-13T08:05:48.322Z,1.48
2023-01-13T08:08:15.148Z,1.23
2023-01-13T08:10:41.892Z,1.00
2023-01-13T08:13:09.795Z,0.90
2023-01-13T08:15:37.840Z,1.30
2023-01-13T08:18:04.358Z,1.20
2023-01-13T08:20:30.863Z,1.00
2023-01-13T08:22:59.927Z,0.75
2023-01-13T08:25:27.823Z,0.70
2023-01-13T08:27:54.784Z,0.90
2023-01-13T08:30:21.593Z,0.75
2023-01-13T08:32:50.424Z,0.93
2023-01-13T08:35:20.301Z,0.90
2023-01-13T08:37:47.700Z,0.88
2023-01-13T08:40:16.027Z,0.70
2023-01-13T08:42:42.831Z,0.93
2023-01-13T08:45:10.595Z,1.05
2023-01-13T08:47:37.376Z,1.38
2023-01-13T08:50:06.618Z,1.00
2023-01-13T08:52:33.136Z,1.23
2023-01-13T08:54:59.717Z,1.30
2023-01-13T08:57:26.275Z,1.10
2023-01-13T08:59:52.871Z,1.40
2023-01-13T09:02:22.287Z,1.25
2023-01-13T09:04:49.837Z,1.30
2023-01-13T09:07:18.989Z,1.17
2023-01-13T09:09:45.868Z,1.10
2023-01-13T09:12:14.054Z,1.10
2023-01-13T09:14:40.870Z,1.00
2023-01-13T09:17:07.567Z,1.30
2023-01-13T09:19:34.516Z,1.60
2023-01-13T09:22:01.143Z,0.98
2023-01-13T09:24:29.275Z,0.90
2023-01-13T09:26:56.075Z,1.77
2023-01-13T09:29:23.253Z,1.00
2023-01-13T09:31:50.219Z,1.48
2023-01-13T09:34:18.300Z,1.30
2023-01-13T09:36:44.938Z,1.50
2023-01-13T09:39:11.662Z,1.73
2023-01-13T09:41:43.854Z,1.53
2023-01-13T09:44:16.786Z,1.63
2023-01-13T09:46:49.271Z,2.20
2023-01-13T09:49:19.949Z,2.63
2023-01-13T09:51:54.029Z,1.42
2023-01-13T09:54:25.700Z,1.50
2023-01-13T09:56:53.965Z,1.75
2023-01-13T09:59:20.533Z,2.00
2023-01-13T10:01:53.931Z,1.70
2023-01-13T10:04:20.791Z,1.98
2023-01-13T10:06:52.502Z,1.60
2023-01-13T10:09:23.375Z,1.80
2023-01-13T10:11:53.377Z,2.15
2023-01-13T10:14:26.597Z,1.67
2023-01-13T10:17:05.354Z,1.73
2023-01-13T10:19:38.615Z,1.67
2023-01-13T10:22:22.855Z,1.52
2023-01-13T10:25:14.100Z,1.95
2023-01-13T10:27:41.081Z,2.05
2023-01-13T10:30:18.041Z,1.50
2023-01-13T10:32:47.545Z,1.93
2023-01-13T10:35:19.315Z,1.30
2023-01-13T10:37:57.678Z,1.52
2023-01-13T10:40:24.532Z,1.42
2023-01-13T10:43:04.719Z,1.63
2023-01-13T10:45:33.042Z,2.30
2023-01-13T10:48:06.574Z,1.30
2023-01-13T10:50:36.535Z,1.70
2023-01-13T10:53:17.505Z,2.00
2023-01-13T10:55:59.109Z,2.17
2023-01-13T10:58:26.187Z,1.70
2023-01-13T11:01:02.175Z,1.83
2023-01-13T11:03:37.206Z,1.35
2023-01-13T11:06:04.331Z,2.20
2023-01-13T11:08:42.432Z,1.50
2023-01-13T11:11:27.132Z,1.90
2023-01-13T11:13:56.645Z,1.30
2023-01-13T11:16:26.278Z,1.90
2023-01-13T11:18:57.691Z,1.88
2023-01-13T11:21:35.359Z,1.77
2023-01-13T11:24:06.309Z,1.63
2023-01-13T11:26:44.013Z,2.05
2023-01-13T11:29:18.511Z,1.67
2023-01-13T11:31:51.693Z,2.40
2023-01-13T11:34:31.697Z,1.52
2023-01-13T11:37:01.326Z,1.30
2023-01-13T11:39:42.556Z,1.85
2023-01-13T11:42:15.853Z,1.85
2023-01-13T11:44:48.960Z,1.88
2023-01-13T11:47:20.873Z,1.42
2023-01-13T11:49:47.769Z,1.73
2023-01-13T11:52:22.665Z,1.73
2023-01-13T11:55:16.989Z,1.70
2023-01-13T11:58:09.056Z,1.75
2023-01-13T12:00:49.259Z,1.80
2023-01-13T12:03:26.795Z,1.70
2023-01-13T12:06:07.991Z,1.85
2023-01-13T12:08:49.249Z,1.85
2023-01-13T12:11:24.242Z,1.58
2023-01-13T12:14:06.213Z,2.10
2023-01-13T12:16:32.940Z,1.67
2023-01-13T12:19:22.864Z,2.03
2023-01-13T12:22:06.762Z,1.33
2023-01-13T12:24:38.424Z,1.48
2023-01-13T12:27:11.865Z,2.03
2023-01-13T12:29:39.862Z,1.47
2023-01-13T12:32:14.476Z,1.50
2023-01-13T12:34:53.611Z,1.90
2023-01-13T12:37:26.905Z,1.95
2023-01-13T12:40:13.496Z,1.90
2023-01-13T12:42:51.465Z,1.00
2023-01-13T12:45:25.203Z,1.95
2023-01-13T12:47:52.271Z,1.80
2023-01-13T12:50:41.885Z,1.80
2023-01-13T12:53:36.320Z,1.67
2023-01-13T12:56:39.893Z,1.50
2023-01-13T12:59:32.392Z,1.55
2023-01-13T13:02:31.138Z,1.48
2023-01-13T13:05:20.247Z,1.30
2023-01-13T13:07:51.875Z,1.77
2023-01-13T13:10:28.162Z,1.40
2023-01-13T13:13:00.009Z,1.40
2023-01-13T13:15:33.143Z,1.30
2023-01-13T13:18:22.957Z,1.70
2023-01-13T13:20:59.285Z,1.23
2023-01-13T13:23:30.453Z,1.43
2023-01-13T13:26:03.312Z,1.33
2023-01-13T13:28:35.277Z,1.17
2023-01-13T13:31:16.473Z,1.20
2023-01-13T13:34:13.140Z,1.35
2023-01-13T13:37:05.920Z,1.27
2023-01-13T13:39:39.613Z,2.25
2023-01-13T13:42:14.009Z,1.90
2023-01-13T13:44:42.774Z,1.90
2023-01-13T13:47:09.717Z,1.50
2023-01-13T13:49:39.274Z,1.33
2023-01-13T13:52:14.541Z,1.30
2023-01-13T13:54:46.236Z,1.60
2023-01-13T13:57:29.234Z,1.25
2023-01-13T13:59:58.647Z,1.50
2023-01-13T14:02:30.270Z,1.60
2023-01-13T14:05:19.335Z,1.77
2023-01-13T14:07:48.184Z,1.50
2023-01-13T14:10:20.726Z,1.50
2023-01-13T14:12:47.593Z,1.83
2023-01-13T14:15:29.645Z,1.77
2023-01-13T14:17:56.238Z,1.30
2023-01-13T14:20:23.617Z,1.70
2023-01-13T14:22:53.646Z,1.63
2023-01-13T14:25:30.191Z,1.50
2023-01-13T14:27:59.235Z,1.70
2023-01-13T14:30:28.404Z,1.77
2023-01-13T14:33:06.006Z,1.50
2023-01-13T14:35:36.041Z,1.55
2023-01-13T14:38:07.389Z,1.50
2023-01-13T14:40:55.216Z,1.57
2023-01-13T14:43:24.889Z,2.08
2023-01-13T14:46:00.045Z,1.33
2023-01-13T14:48:30.971Z,1.55
2023-01-13T14:51:00.265Z,1.67
2023-01-13T14:53:32.767Z,1.87
2023-01-13T14:59:48.922Z,1.63
2023-01-13T15:02:46.449Z,1.55
2023-01-13T15:05:44.881Z,2.25
2023-01-13T15:08:34.802Z,2.00
2023-01-13T15:11:03.448Z,1.92
2023-01-13T15:13:37.754Z,1.40
2023-01-13T15:16:19.521Z,1.70
2023-01-13T15:18:57.135Z,1.50
2023-01-13T15:21:36.327Z,1.53
2023-01-13T15:24:03.143Z,1.40
2023-01-13T15:26:33.429Z,1.55
2023-01-13T15:29:16.862Z,1.58
2023-01-13T15:32:21.497Z,1.10
2023-01-13T15:34:52.551Z,1.50
2023-01-13T15:37:21.513Z,1.20
2023-01-13T15:40:03.627Z,2.03
2023-01-13T15:42:32.764Z,2.53
2023-01-13T15:45:43.341Z,1.80
2023-01-13T15:48:32.932Z,1.23
2023-01-13T15:51:00.742Z,1.70
2023-01-13T15:53:28.523Z,1.63
2023-01-13T15:55:57.960Z,1.80
2023-01-13T15:58:28.291Z,1.60
2023-01-13T16:00:55.501Z,2.00
2023-01-13T16:03:24.021Z,1.48
2023-01-13T16:05:50.750Z,1.90
2023-01-13T16:08:19.474Z,1.70
2023-01-13T16:10:46.601Z,1.55
2023-01-13T16:13:13.624Z,1.93
2023-01-13T16:15:44.944Z,1.52
2023-01-13T16:18:18.842Z,1.80
2023-01-13T16:20:47.452Z,1.40
2023-01-13T16:23:14.281Z,1.70
2023-01-13T16:25:41.306Z,1.63
2023-01-13T16:28:19.082Z,1.90
2023-01-13T16:30:46.628Z,1.60
2023-01-13T16:33:16.228Z,1.67
2023-01-13T16:36:10.519Z,2.00
2023-01-13T16:38:32.456Z,1.93
2023-01-13T16:40:59.865Z,1.60
2023-01-13T16:43:27.104Z,1.90
2023-01-13T16:45:54.849Z,1.83
2023-01-13T16:48:21.682Z,2.50
2023-01-13T16:50:48.728Z,1.70
2023-01-13T16:53:15.809Z,1.52
2023-01-13T16:55:44.314Z,1.48
2023-01-13T16:58:17.484Z,1.70
2023-01-13T17:00:46.462Z,1.77
2023-01-13T17:03:13.193Z,1.73
2023-01-13T17:05:41.797Z,1.52
2023-01-13T17:08:11.692Z,1.80
2023-01-13T17:10:38.422Z,1.85
2023-01-13T17:13:15.992Z,1.50
2023-01-13T17:15:44.282Z,1.40
2023-01-13T17:18:13.135Z,1.58
2023-01-13T17:20:40.217Z,1.67
2023-01-13T17:23:07.032Z,1.35
2023-01-13T17:25:34.799Z,1.40
2023-01-13T17:28:01.640Z,1.80
2023-01-13T17:30:30.621Z,1.52
2023-01-13T17:32:57.165Z,1.17
2023-01-13T17:35:23.773Z,1.77
2023-01-13T17:37:50.545Z,1.52
2023-01-13T17:40:17.475Z,1.50
2023-01-13T17:42:44.102Z,1.92
2023-01-13T17:45:11.526Z,1.83
2023-01-13T17:47:39.456Z,1.60
2023-01-13T17:50:06.729Z,1.58
2023-01-13T17:52:33.779Z,1.53
2023-01-13T17:55:00.523Z,1.48
2023-01-13T17:57:27.226Z,2.10
2023-01-13T17:59:53.784Z,1.90
2023-01-13T18:02:20.575Z,1.60
2023-01-13T18:04:48.531Z,2.10
2023-01-13T18:07:15.123Z,1.67
2023-01-13T18:09:42.914Z,2.47
2023-01-13T18:12:10.790Z,2.20
2023-01-13T18:14:37.713Z,2.05
2023-01-13T18:17:07.418Z,1.87
2023-01-13T18:19:56.148Z,1.70
2023-01-13T18:25:53.011Z,2.42
2023-01-13T18:28:25.505Z,1.65
2023-01-13T18:30:58.354Z,1.80
2023-01-13T18:33:32.963Z,1.75
2023-01-13T18:36:06.840Z,2.17
2023-01-13T18:41:19.327Z,1.38
2023-01-13T18:44:00.347Z,2.37
2023-01-13T18:46:52.559Z,1.92
2023-01-13T18:49:22.346Z,1.88
2023-01-13T18:51:49.085Z,2.08
2023-01-13T18:54:17.133Z,1.63
2023-01-13T18:56:50.358Z,1.70
2023-01-13T18:59:17.323Z,1.50
2023-01-13T19:01:44.188Z,1.42
2023-01-13T19:04:18.541Z,1.40
2023-01-13T19:06:49.371Z,1.65
2023-01-13T19:09:18.947Z,1.50
2023-01-13T19:11:48.087Z,1.50
2023-01-13T19:14:17.808Z,1.98
2023-01-13T19:16:47.123Z,1.33
2023-01-13T19:19:14.025Z,1.58
2023-01-13T19:21:41.507Z,1.47
2023-01-13T19:24:09.658Z,1.92
2023-01-13T19:26:48.666Z,1.80
2023-01-13T19:29:17.448Z,1.50
2023-01-13T19:31:44.191Z,1.42
2023-01-13T19:34:11.078Z,1.50
2023-01-13T19:36:37.728Z,1.70
2023-01-13T19:39:07.935Z,1.52
2023-01-13T19:41:39.199Z,1.48
2023-01-13T19:44:15.059Z,1.30
2023-01-13T19:46:41.773Z,1.40
2023-01-13T19:49:15.892Z,1.50
2023-01-13T19:51:48.338Z,1.15
2023-01-13T19:54:19.146Z,1.83
2023-01-13T19:56:57.927Z,1.48
2023-01-13T19:59:27.759Z,2.67
2023-01-13T20:01:55.078Z,2.88
2023-01-13T20:04:25.234Z,2.22
2023-01-13T20:06:51.872Z,2.13
2023-01-13T20:09:24.481Z,2.65
2023-01-13T20:11:53.030Z,2.00
2023-01-13T20:14:26.747Z,2.60
2023-01-13T20:16:57.310Z,1.92
2023-01-13T20:19:25.471Z,1.85
2023-01-13T20:21:56.857Z,1.90
2023-01-13T20:25:03.006Z,2.20
2023-01-13T20:27:29.603Z,2.30
2023-01-13T20:29:56.220Z,1.90
2023-01-13T20:32:34.538Z,2.42
2023-01-13T20:35:01.250Z,2.40
2023-01-13T20:37:37.796Z,1.80
2023-01-13T20:40:07.141Z,1.90
2023-01-13T20:42:42.445Z,2.20
2023-01-13T20:45:10.716Z,2.38
2023-01-13T20:47:38.932Z,1.73
2023-01-13T20:50:06.722Z,2.17
2023-01-13T20:52:39.031Z,2.10
2023-01-13T20:55:07.445Z,2.08
2023-01-13T20:57:37.610Z,3.03
2023-01-13T21:00:59.337Z,2.10
2023-01-13T21:11:23.944Z,2.22
2023-01-13T21:17:55.340Z,2.90
2023-01-13T21:24:04.746Z,2.30
2023-01-13T21:26:40.461Z,3.15
2023-01-13T21:29:09.568Z,2.45
2023-01-13T21:31:54.794Z,2.38
2023-01-13T21:34:22.070Z,2.30
2023-01-13T21:39:59.542Z,2.35
2023-01-13T21:42:37.219Z,2.35
2023-01-13T21:45:13.529Z,2.53
2023-01-13T21:47:46.633Z,2.00
2023-01-13T21:58:01.655Z,2.58
2023-01-13T22:11:48.703Z,3.40
2023-01-13T22:14:22.741Z,2.38
2023-01-13T23:04:33.569Z,2.72
2023-01-13T23:07:11.361Z,3.05
2023-01-13T23:09:48.059Z,3.30
2023-01-13T23:12:20.110Z,3.60
2023-01-13T23:14:52.030Z,2.75
2023-01-13T23:26:32.073Z,3.30
2023-01-13T23:29:14.697Z,2.53
2023-01-13T23:31:50.916Z,2.67
2023-01-13T23:34:32.230Z,2.58
2023-01-13T23:37:15.908Z,2.60
2023-01-13T23:39:45.332Z,2.88
2023-01-13T23:42:14.404Z,3.33
2023-01-13T23:44:43.236Z,2.70
2023-01-13T23:47:29.772Z,2.67
2023-01-13T23:50:03.524Z,2.50
2023-01-13T23:52:58.300Z,2.28
2023-01-13T23:55:28.742Z,2.70
2023-01-13T23:58:13.568Z,2.60
